sensor_id;sensor_type;location;lat;lon;timestamp;pressure;altitude;pressure_sealevel;temperature;humidity
67377;BME280;54261;46.086;6.588;2024-03-02T12:06:54;91035.59;;;3.89;43.42
67377;BME280;54261;46.086;6.588;2024-03-02T12:12:06;91027.56;;;3.13;41.93
67377;BME280;54261;46.086;6.588;2024-03-02T12:17:08;91029.44;;;3.62;43.13
67377;BME280;54261;46.086;6.588;2024-03-02T12:22:10;91012.53;;;5.77;39.50
67377;BME280;54261;46.086;6.588;2024-03-02T12:27:13;90997.06;;;4.09;44.23
67377;BME280;54261;46.086;6.588;2024-03-02T12:32:16;90979.22;;;3.75;43.51
67377;BME280;54261;46.086;6.588;2024-03-02T12:37:18;90979.03;;;3.97;44.47
67377;BME280;54261;46.086;6.588;2024-03-02T12:42:20;90972.66;;;4.99;44.22
67377;BME280;54261;46.086;6.588;2024-03-02T12:47:22;90952.19;;;4.34;44.22
67377;BME280;54261;46.086;6.588;2024-03-02T12:52:24;90953.59;;;3.96;44.96
67377;BME280;54261;46.086;6.588;2024-03-02T12:57:27;90923.03;;;5.03;45.58
67377;BME280;54261;46.086;6.588;2024-03-02T13:02:30;90914.09;;;3.95;44.84
67377;BME280;54261;46.086;6.588;2024-03-02T13:07:32;90932.31;;;5.57;44.37
67377;BME280;54261;46.086;6.588;2024-03-02T13:12:36;90923.41;;;9.17;36.41
67377;BME280;54261;46.086;6.588;2024-03-02T13:17:38;90938.16;;;5.50;43.48
67377;BME280;54261;46.086;6.588;2024-03-02T13:22:41;90928.53;;;6.01;41.11
67377;BME280;54261;46.086;6.588;2024-03-02T13:27:43;90916.94;;;4.73;43.60
67377;BME280;54261;46.086;6.588;2024-03-02T13:32:45;90912.47;;;6.31;42.93
67377;BME280;54261;46.086;6.588;2024-03-02T13:37:47;90932.88;;;4.73;43.25
67377;BME280;54261;46.086;6.588;2024-03-02T13:42:49;90943.03;;;5.69;43.73
67377;BME280;54261;46.086;6.588;2024-03-02T13:47:53;90942.22;;;3.78;49.76
67377;BME280;54261;46.086;6.588;2024-03-02T13:52:55;90940.28;;;4.49;48.07
67377;BME280;54261;46.086;6.588;2024-03-02T13:57:57;90944.47;;;5.88;45.51
67377;BME280;54261;46.086;6.588;2024-03-02T14:03:00;90943.63;;;5.75;46.86
67377;BME280;54261;46.086;6.588;2024-03-02T14:08:02;90948.22;;;5.36;45.29
67377;BME280;54261;46.086;6.588;2024-03-02T14:13:04;90940.19;;;7.34;44.58
67377;BME280;54261;46.086;6.588;2024-03-02T14:18:07;90926.09;;;3.48;49.61
67377;BME280;54261;46.086;6.588;2024-03-02T14:23:12;90935.06;;;7.54;42.26
67377;BME280;54261;46.086;6.588;2024-03-02T14:28:14;90944.72;;;9.14;40.12
67377;BME280;54261;46.086;6.588;2024-03-02T14:33:37;90950.63;;;7.64;41.65
67377;BME280;54261;46.086;6.588;2024-03-02T14:38:39;90956.81;;;5.93;46.41
67377;BME280;54261;46.086;6.588;2024-03-02T14:43:41;90926.53;;;4.95;47.54
67377;BME280;54261;46.086;6.588;2024-03-02T14:48:43;90958.19;;;7.50;43.16
67377;BME280;54261;46.086;6.588;2024-03-02T14:53:45;90913.09;;;6.61;43.88
67377;BME280;54261;46.086;6.588;2024-03-02T14:58:47;90929.13;;;7.86;42.22
67377;BME280;54261;46.086;6.588;2024-03-02T15:03:50;90930.94;;;8.22;40.24
67377;BME280;54261;46.086;6.588;2024-03-02T15:08:52;90903.09;;;8.40;40.69
67377;BME280;54261;46.086;6.588;2024-03-02T15:13:56;90911.31;;;8.47;40.03
67377;BME280;54261;46.086;6.588;2024-03-02T15:18:58;90842.28;;;6.98;42.24
67377;BME280;54261;46.086;6.588;2024-03-02T15:24:00;90884.88;;;8.74;40.21
67377;BME280;54261;46.086;6.588;2024-03-02T15:29:01;90865.72;;;3.10;52.01
67377;BME280;54261;46.086;6.588;2024-03-02T15:34:03;90853.31;;;7.90;43.29
67377;BME280;54261;46.086;6.588;2024-03-02T15:39:05;90855.84;;;2.93;52.22
67377;BME280;54261;46.086;6.588;2024-03-02T15:44:10;90822.97;;;5.20;49.21
67377;BME280;54261;46.086;6.588;2024-03-02T15:49:13;90841.78;;;5.15;50.13
67377;BME280;54261;46.086;6.588;2024-03-02T15:54:17;90838.63;;;8.57;41.30
67377;BME280;54261;46.086;6.588;2024-03-02T15:59:18;90817.25;;;9.61;38.37
67377;BME280;54261;46.086;6.588;2024-03-02T16:04:20;90839.50;;;10.01;37.89
67377;BME280;54261;46.086;6.588;2024-03-02T16:09:22;90838.47;;;10.05;37.24
67377;BME280;54261;46.086;6.588;2024-03-02T16:14:24;90834.75;;;9.94;36.51
67377;BME280;54261;46.086;6.588;2024-03-02T16:19:26;90846.75;;;8.77;39.73
67377;BME280;54261;46.086;6.588;2024-03-02T16:24:34;90857.88;;;8.63;39.23
67377;BME280;54261;46.086;6.588;2024-03-02T16:29:35;90853.78;;;7.39;41.58
67377;BME280;54261;46.086;6.588;2024-03-02T16:34:39;90855.84;;;7.99;40.98
67377;BME280;54261;46.086;6.588;2024-03-02T16:39:41;90864.28;;;7.73;41.09
67377;BME280;54261;46.086;6.588;2024-03-02T16:44:42;90844.66;;;7.93;40.52
67377;BME280;54261;46.086;6.588;2024-03-02T16:49:44;90882.34;;;4.34;46.88
67377;BME280;54261;46.086;6.588;2024-03-02T16:54:50;90870.63;;;6.44;43.47
67377;BME280;54261;46.086;6.588;2024-03-02T16:59:52;90811.44;;;5.16;44.34
67377;BME280;54261;46.086;6.588;2024-03-02T17:04:55;90872.53;;;6.43;43.23
67377;BME280;54261;46.086;6.588;2024-03-02T17:09:56;90812.25;;;6.51;42.12
67377;BME280;54261;46.086;6.588;2024-03-02T17:15:00;90855.59;;;6.27;43.83
67377;BME280;54261;46.086;6.588;2024-03-02T17:20:04;90848.53;;;6.56;43.02
67377;BME280;54261;46.086;6.588;2024-03-02T17:25:06;90855.84;;;6.80;41.56
67377;BME280;54261;46.086;6.588;2024-03-02T17:30:09;90847.28;;;6.28;41.74
67377;BME280;54261;46.086;6.588;2024-03-02T17:35:11;90866.50;;;7.05;41.33
